createdAt,value
2017-08-03T00:00:00.130Z,63.90
2017-08-03T00:02:27.865Z,63.90
2017-08-03T00:04:55.599Z,63.90
2017-08-03T00:07:24.284Z,64.50
2017-08-03T00:09:52.015Z,64.30
2017-08-03T00:12:19.743Z,63.20
2017-08-03T00:14:47.512Z,64.00
2017-08-03T00:17:16.174Z,63.70
2017-08-03T00:19:43.906Z,64.00
2017-08-03T00:22:11.635Z,64.30
2017-08-03T00:24:40.019Z,63.80
2017-08-03T00:27:08.036Z,64.40
2017-08-03T00:29:35.764Z,64.60
2017-08-03T00:32:03.515Z,64.50
2017-08-03T00:34:31.239Z,64.40
2017-08-03T00:36:59.892Z,64.80
2017-08-03T00:39:27.611Z,65.00
2017-08-03T00:41:55.352Z,63.90
2017-08-03T00:44:23.088Z,64.50
2017-08-03T00:46:51.972Z,63.60
2017-08-03T00:49:19.720Z,64.10
2017-08-03T00:51:47.448Z,63.70
2017-08-03T00:54:15.199Z,64.30
2017-08-03T00:56:43.648Z,63.60
2017-08-03T00:59:11.371Z,62.90
2017-08-03T01:01:39.114Z,63.60
2017-08-03T01:04:06.844Z,63.00
2017-08-03T01:06:35.648Z,63.20
2017-08-03T01:09:03.518Z,63.50
2017-08-03T01:11:31.250Z,63.90
2017-08-03T01:13:58.990Z,63.20
2017-08-03T01:16:27.636Z,63.70
2017-08-03T01:18:55.393Z,64.50
2017-08-03T01:21:23.131Z,63.40
2017-08-03T01:23:50.850Z,63.60
2017-08-03T01:26:19.586Z,64.30
2017-08-03T01:28:47.320Z,64.00
2017-08-03T01:31:15.082Z,63.30
2017-08-03T01:33:42.823Z,63.90
2017-08-03T01:36:11.211Z,63.90
2017-08-03T01:38:38.992Z,64.60
2017-08-03T01:41:06.760Z,63.60
2017-08-03T01:43:34.564Z,63.50
2017-08-03T01:46:03.218Z,64.10
2017-08-03T01:48:30.987Z,64.60
2017-08-03T01:50:58.789Z,63.90
2017-08-03T01:53:26.576Z,63.60
2017-08-03T01:55:54.935Z,64.10
2017-08-03T01:58:22.706Z,64.10
2017-08-03T02:00:50.507Z,63.30
2017-08-03T02:03:18.230Z,63.40
2017-08-03T02:05:46.900Z,63.90
2017-08-03T02:08:14.715Z,62.90
2017-08-03T02:10:43.215Z,63.10
2017-08-03T02:13:10.958Z,63.10
2017-08-03T02:15:38.742Z,63.40
2017-08-03T02:18:06.469Z,63.90
2017-08-03T02:20:34.980Z,64.30
2017-08-03T02:23:02.755Z,62.60
2017-08-03T02:25:30.491Z,63.40
2017-08-03T02:27:58.236Z,63.90
2017-08-03T02:30:25.962Z,63.50
2017-08-03T02:32:53.727Z,62.90
2017-08-03T02:35:22.500Z,63.50
2017-08-03T02:37:50.231Z,63.50
2017-08-03T02:40:17.969Z,63.30
2017-08-03T02:42:45.700Z,63.40
2017-08-03T02:45:14.306Z,62.90
2017-08-03T02:47:42.065Z,62.30
2017-08-03T02:50:09.824Z,62.30
2017-08-03T02:52:38.316Z,62.00
2017-08-03T02:55:06.096Z,62.50
2017-08-03T02:57:33.859Z,62.90
2017-08-03T03:00:01.581Z,63.10
2017-08-03T03:02:29.298Z,62.40
2017-08-03T03:04:58.039Z,62.60
2017-08-03T03:07:25.775Z,63.10
2017-08-03T03:09:53.510Z,62.20
2017-08-03T03:12:21.987Z,64.00
2017-08-03T03:14:49.874Z,62.50
2017-08-03T03:17:17.601Z,62.70
2017-08-03T03:19:46.094Z,62.60
2017-08-03T03:22:13.813Z,63.20
2017-08-03T03:24:41.884Z,62.00
2017-08-03T03:27:09.615Z,62.40
2017-08-03T03:29:37.339Z,62.90
2017-08-03T03:32:05.052Z,61.70
2017-08-03T03:34:33.748Z,61.30
2017-08-03T03:37:02.378Z,61.80
2017-08-03T03:39:30.182Z,61.60
2017-08-03T03:41:57.907Z,61.50
2017-08-03T03:44:25.639Z,61.50
2017-08-03T03:46:53.376Z,61.80
2017-08-03T03:49:21.099Z,62.10
2017-08-03T03:51:48.843Z,61.80
2017-08-03T03:54:17.361Z,62.30
2017-08-03T03:56:45.850Z,62.40
2017-08-03T03:59:14.355Z,62.40
2017-08-03T04:01:42.096Z,62.10
2017-08-03T04:04:09.834Z,62.10
2017-08-03T04:06:37.581Z,62.80
2017-08-03T04:09:05.346Z,61.80
2017-08-03T04:11:33.095Z,62.20
2017-08-03T04:14:01.043Z,62.90
2017-08-03T04:16:28.765Z,62.40
2017-08-03T04:18:56.527Z,62.10
2017-08-03T04:21:24.266Z,62.70
2017-08-03T04:23:52.927Z,61.90
2017-08-03T04:26:20.673Z,61.30
2017-08-03T04:28:48.402Z,59.80
2017-08-03T04:31:16.139Z,61.00
2017-08-03T04:33:44.959Z,61.30
2017-08-03T04:36:13.034Z,61.00
2017-08-03T04:38:41.515Z,62.10
2017-08-03T04:41:10.142Z,62.00
2017-08-03T04:43:37.914Z,62.10
2017-08-03T04:46:06.568Z,62.60
2017-08-03T04:48:34.311Z,62.10
2017-08-03T04:51:02.110Z,62.70
2017-08-03T04:53:29.858Z,62.20
2017-08-03T04:55:57.628Z,62.30
2017-08-03T04:58:25.371Z,62.80
2017-08-03T05:00:54.106Z,63.40
2017-08-03T05:03:21.850Z,62.60
2017-08-03T05:05:49.583Z,62.30
2017-08-03T05:08:18.051Z,63.80
2017-08-03T05:10:45.796Z,63.00
2017-08-03T05:13:13.552Z,63.20
2017-08-03T05:15:41.279Z,63.80
2017-08-03T05:18:09.011Z,62.90
2017-08-03T05:20:36.783Z,62.30
2017-08-03T05:23:04.924Z,61.80
2017-08-03T05:25:32.660Z,61.90
2017-08-03T05:28:01.144Z,62.60
2017-08-03T05:30:28.899Z,63.00
2017-08-03T05:32:56.612Z,61.90
2017-08-03T05:35:24.347Z,62.40
2017-08-03T05:37:52.079Z,62.60
2017-08-03T05:40:19.839Z,63.10
2017-08-03T05:42:48.227Z,63.50
2017-08-03T05:45:15.954Z,63.20
2017-08-03T05:47:43.679Z,62.90
2017-08-03T05:50:11.414Z,63.50
2017-08-03T05:52:40.158Z,63.50
2017-08-03T05:55:07.975Z,63.70
2017-08-03T05:57:35.714Z,63.10
2017-08-03T06:00:03.552Z,63.60
2017-08-03T06:02:32.023Z,62.80
2017-08-03T06:04:59.763Z,62.90
2017-08-03T06:07:27.495Z,62.00
2017-08-03T06:09:55.219Z,62.80
2017-08-03T06:12:23.918Z,63.10
2017-08-03T06:14:51.662Z,61.30
2017-08-03T06:17:19.462Z,61.30
2017-08-03T06:19:47.957Z,61.00
2017-08-03T06:22:15.698Z,60.90
2017-08-03T06:24:44.190Z,58.90
2017-08-03T06:27:11.911Z,58.90
2017-08-03T06:29:39.650Z,59.90
2017-08-03T06:32:07.407Z,59.30
2017-08-03T06:34:35.151Z,61.50
2017-08-03T06:37:03.667Z,61.50
2017-08-03T06:39:31.411Z,61.50
2017-08-03T06:41:59.702Z,62.10
2017-08-03T06:44:28.759Z,61.70
2017-08-03T06:46:57.247Z,62.10
2017-08-03T06:49:24.970Z,62.00
2017-08-03T06:51:52.725Z,60.80
2017-08-03T06:54:20.452Z,61.30
2017-08-03T06:56:48.206Z,61.50
2017-08-03T06:59:16.253Z,56.90
2017-08-03T07:01:44.002Z,55.30
2017-08-03T07:04:11.743Z,55.50
2017-08-03T07:06:39.467Z,56.90
2017-08-03T07:09:07.180Z,56.40
2017-08-03T07:11:36.437Z,57.00
2017-08-03T07:14:04.183Z,57.20
2017-08-03T07:16:32.686Z,54.50
2017-08-03T07:19:00.418Z,51.90
2017-08-03T07:21:30.522Z,50.60
2017-08-03T07:23:58.261Z,50.70
2017-08-03T07:26:26.020Z,50.50
2017-08-03T07:28:53.780Z,51.20
2017-08-03T07:31:21.611Z,51.70
2017-08-03T07:33:49.371Z,52.80
2017-08-03T07:36:17.094Z,52.60
2017-08-03T07:38:44.815Z,51.30
2017-08-03T07:41:12.542Z,51.50
2017-08-03T07:43:40.262Z,52.70
2017-08-03T07:46:07.973Z,51.90
2017-08-03T07:48:36.872Z,52.60
2017-08-03T07:51:05.402Z,51.20
2017-08-03T07:53:33.175Z,51.20
2017-08-03T07:56:00.915Z,51.80
2017-08-03T07:58:30.518Z,50.50
2017-08-03T08:00:58.931Z,50.30
2017-08-03T08:03:26.663Z,51.00
2017-08-03T08:05:54.447Z,50.60
2017-08-03T08:08:23.355Z,50.20
2017-08-03T08:10:51.088Z,50.90
2017-08-03T08:13:18.818Z,48.20
2017-08-03T08:15:46.548Z,50.30
2017-08-03T08:18:15.188Z,49.30
2017-08-03T08:20:42.939Z,47.50
2017-08-03T08:23:10.680Z,49.30
2017-08-03T08:25:39.635Z,48.20
2017-08-03T08:28:07.359Z,48.20
2017-08-03T08:30:35.111Z,49.40
2017-08-03T08:33:02.843Z,51.20
2017-08-03T08:35:30.604Z,49.80
2017-08-03T08:37:58.334Z,50.20
2017-08-03T08:40:26.654Z,49.20
2017-08-03T08:42:54.403Z,50.10
2017-08-03T08:45:22.188Z,50.90
2017-08-03T08:47:49.926Z,50.00
2017-08-03T08:50:17.663Z,49.90
2017-08-03T08:52:45.382Z,49.40
2017-08-03T08:55:14.371Z,49.80
2017-08-03T08:57:42.105Z,49.80
2017-08-03T09:00:09.842Z,50.40
2017-08-03T09:02:37.583Z,49.30
2017-08-03T09:05:05.831Z,49.80
2017-08-03T09:07:34.461Z,49.50
2017-08-03T09:10:02.198Z,49.70
2017-08-03T09:12:29.946Z,49.60
2017-08-03T09:14:57.667Z,48.80
2017-08-03T09:17:25.390Z,48.40
2017-08-03T09:19:53.119Z,49.40
2017-08-03T09:22:20.919Z,49.80
2017-08-03T09:24:49.539Z,49.30
2017-08-03T09:27:17.296Z,49.60
2017-08-03T09:29:45.034Z,49.00
2017-08-03T09:32:12.769Z,48.80
2017-08-03T09:34:40.514Z,49.70
2017-08-03T09:37:08.251Z,50.10
2017-08-03T09:39:35.983Z,49.90
2017-08-03T09:42:03.715Z,50.00
2017-08-03T09:44:32.590Z,49.30
2017-08-03T09:47:00.343Z,49.50
2017-08-03T09:49:28.180Z,49.00
2017-08-03T09:51:55.986Z,49.00
2017-08-03T09:54:23.878Z,49.20
2017-08-03T09:56:51.645Z,48.50
2017-08-03T09:59:19.396Z,48.00
2017-08-03T10:01:47.174Z,47.70
2017-08-03T10:04:14.919Z,47.90
2017-08-03T10:06:42.711Z,48.50
2017-08-03T10:09:11.227Z,48.60
2017-08-03T10:11:38.950Z,48.50
2017-08-03T10:14:06.694Z,49.20
2017-08-03T10:16:34.421Z,49.60
2017-08-03T10:19:02.166Z,50.30
2017-08-03T10:21:29.926Z,50.60
2017-08-03T10:23:57.650Z,50.30
2017-08-03T10:26:25.772Z,50.50
2017-08-03T10:28:53.592Z,50.30
2017-08-03T10:31:21.322Z,50.20
2017-08-03T10:33:49.261Z,50.90
2017-08-03T10:36:17.019Z,51.20
2017-08-03T10:38:44.799Z,52.50
2017-08-03T10:41:12.515Z,51.50
2017-08-03T10:43:40.352Z,51.20
2017-08-03T10:46:08.075Z,52.10
2017-08-03T10:48:35.826Z,51.30
2017-08-03T10:51:03.554Z,51.70
2017-08-03T10:53:31.284Z,53.00
2017-08-03T10:55:59.007Z,52.70
2017-08-03T10:58:26.754Z,50.60
2017-08-03T11:00:54.491Z,51.50
2017-08-03T11:03:22.223Z,51.80
2017-08-03T11:05:49.942Z,50.70
2017-08-03T11:08:17.694Z,51.20
2017-08-03T11:10:45.408Z,50.30
2017-08-03T11:13:13.143Z,50.40
2017-08-03T11:15:40.897Z,50.30
2017-08-03T11:18:08.643Z,50.60
2017-08-03T11:20:36.368Z,50.30
2017-08-03T11:23:04.106Z,49.70
2017-08-03T11:25:31.869Z,50.00
2017-08-03T11:27:59.611Z,48.10
2017-08-03T11:30:27.350Z,48.70
2017-08-03T11:32:55.086Z,45.50
2017-08-03T11:35:22.818Z,46.20
2017-08-03T11:37:50.556Z,44.90
2017-08-03T11:40:18.304Z,43.10
2017-08-03T11:42:46.043Z,41.90
2017-08-03T11:45:13.769Z,42.60
2017-08-03T11:47:41.498Z,44.10
2017-08-03T11:50:09.215Z,41.40
2017-08-03T11:52:36.954Z,41.90
2017-08-03T11:55:04.703Z,42.10
2017-08-03T11:57:32.431Z,42.60
2017-08-03T12:00:00.189Z,40.90
2017-08-03T12:02:30.716Z,39.70
2017-08-03T12:04:58.475Z,40.10
2017-08-03T12:07:26.246Z,40.30
2017-08-03T12:09:53.996Z,41.30
2017-08-03T12:12:21.719Z,39.50
2017-08-03T12:14:49.459Z,38.50
2017-08-03T12:17:17.193Z,37.80
2017-08-03T12:19:46.058Z,38.90
2017-08-03T12:22:13.809Z,39.30
2017-08-03T12:24:41.544Z,39.90
2017-08-03T12:30:01.875Z,39.30
2017-08-03T12:32:29.626Z,36.00
2017-08-03T12:34:57.357Z,37.70
2017-08-03T12:37:25.074Z,37.50
2017-08-03T12:39:52.812Z,38.70
2017-08-03T12:42:21.162Z,37.10
2017-08-03T12:44:48.886Z,34.70
2017-08-03T12:47:16.631Z,35.00
2017-08-03T12:49:44.348Z,33.60
2017-08-03T12:53:31.941Z,31.70
2017-08-03T12:55:59.663Z,33.80
2017-08-03T12:58:27.426Z,31.50
2017-08-03T13:00:55.133Z,33.60
2017-08-03T13:03:24.250Z,36.40
2017-08-03T13:05:53.918Z,40.20
2017-08-03T13:08:23.097Z,41.90
2017-08-03T13:10:50.864Z,43.50
2017-08-03T13:13:18.716Z,45.00
2017-08-03T13:15:46.478Z,45.90
2017-08-03T13:18:14.966Z,46.40
2017-08-03T13:20:43.091Z,46.90
2017-08-03T13:23:10.923Z,47.70
2017-08-03T13:25:39.777Z,48.20
2017-08-03T13:28:07.897Z,48.00
2017-08-03T13:30:35.631Z,48.00
2017-08-03T13:33:03.360Z,48.80
2017-08-03T13:35:33.029Z,49.40
2017-08-03T13:38:00.734Z,49.90
2017-08-03T13:40:28.458Z,50.20
2017-08-03T13:42:56.559Z,50.20
2017-08-03T13:45:24.302Z,50.70
2017-08-03T13:50:14.403Z,51.60
2017-08-03T13:52:42.135Z,48.40
2017-08-03T13:55:09.852Z,47.40
2017-08-03T13:57:39.510Z,45.90
2017-08-03T14:00:07.214Z,46.00
2017-08-03T14:02:35.681Z,44.70
2017-08-03T14:05:03.386Z,44.60
2017-08-03T14:07:31.663Z,43.70
2017-08-03T14:09:59.386Z,44.30
2017-08-03T14:12:27.082Z,43.30
2017-08-03T14:14:54.771Z,43.20
2017-08-03T14:17:22.538Z,42.70
2017-08-03T14:19:50.251Z,43.70
2017-08-03T14:22:18.774Z,42.50
2017-08-03T14:24:46.478Z,42.60
2017-08-03T14:27:14.187Z,43.20
2017-08-03T14:29:41.917Z,41.70
2017-08-03T14:32:09.641Z,42.20
2017-08-03T14:34:37.350Z,42.80
2017-08-03T14:37:05.890Z,42.40
2017-08-03T14:39:33.615Z,42.50
2017-08-03T14:42:01.323Z,41.80
2017-08-03T14:44:29.041Z,42.40
2017-08-03T14:46:56.855Z,42.10
2017-08-03T14:49:24.631Z,42.70
2017-08-03T14:51:52.355Z,42.50
2017-08-03T14:54:20.058Z,42.90
2017-08-03T14:56:47.827Z,43.40
2017-08-03T14:59:16.404Z,43.70
2017-08-03T15:01:44.126Z,44.10
2017-08-03T15:04:11.846Z,44.30
2017-08-03T15:06:39.546Z,44.20
2017-08-03T15:09:07.257Z,43.70
2017-08-03T15:11:34.967Z,42.80
2017-08-03T15:14:02.676Z,43.70
2017-08-03T15:16:30.430Z,43.90
2017-08-03T15:18:58.115Z,44.10
2017-08-03T15:21:26.599Z,43.60
2017-08-03T15:23:54.330Z,43.60
2017-08-03T15:26:22.091Z,44.10
2017-08-03T15:28:49.786Z,44.40
2017-08-03T15:31:18.449Z,44.70
2017-08-03T15:33:46.179Z,44.70
2017-08-03T15:36:13.930Z,43.20
2017-08-03T15:38:41.635Z,44.20
2017-08-03T15:41:10.175Z,43.80
2017-08-03T15:43:37.884Z,43.20
2017-08-03T15:46:05.841Z,43.70
2017-08-03T15:48:33.561Z,42.30
2017-08-03T15:51:01.279Z,43.20
2017-08-03T15:53:29.017Z,43.00
2017-08-03T15:55:57.330Z,42.20
2017-08-03T15:58:25.033Z,40.70
2017-08-03T16:00:52.739Z,41.10
2017-08-03T16:03:20.442Z,40.80
2017-08-03T16:05:48.902Z,41.10
2017-08-03T16:08:16.623Z,41.10
2017-08-03T16:10:44.342Z,42.00
2017-08-03T16:13:12.907Z,42.20
2017-08-03T16:15:40.626Z,42.70
2017-08-03T16:18:08.340Z,43.50
2017-08-03T16:20:36.042Z,43.50
2017-08-03T16:23:04.310Z,45.60
2017-08-03T16:25:32.010Z,43.70
2017-08-03T16:27:59.722Z,43.30
2017-08-03T16:30:27.867Z,42.10
2017-08-03T16:32:55.563Z,41.90
2017-08-03T16:35:23.290Z,43.50
2017-08-03T16:37:50.993Z,44.00
2017-08-03T16:40:18.694Z,49.40
2017-08-03T16:42:46.422Z,47.90
2017-08-03T16:45:14.154Z,46.20
2017-08-03T16:47:43.215Z,47.50
2017-08-03T16:50:10.917Z,47.40
2017-08-03T16:52:38.634Z,47.80
2017-08-03T16:55:06.334Z,42.50
2017-08-03T16:57:34.036Z,44.30
2017-08-03T17:00:01.734Z,44.70
2017-08-03T17:02:29.437Z,46.30
2017-08-03T17:04:58.807Z,46.30
2017-08-03T17:07:26.530Z,46.20
2017-08-03T17:09:54.290Z,46.20
2017-08-03T17:12:21.999Z,49.40
2017-08-03T17:14:50.499Z,48.40
2017-08-03T17:17:18.215Z,47.50
2017-08-03T17:19:45.929Z,46.90
2017-08-03T17:22:14.438Z,47.80
2017-08-03T17:24:42.158Z,47.70
2017-08-03T17:27:09.850Z,47.80
2017-08-03T17:29:37.562Z,47.50
2017-08-03T17:32:05.327Z,48.20
2017-08-03T17:34:33.947Z,49.40
2017-08-03T17:37:01.681Z,48.80
2017-08-03T17:39:29.462Z,49.00
2017-08-03T17:41:57.843Z,48.60
2017-08-03T17:44:25.566Z,48.80
2017-08-03T17:46:53.261Z,49.00
2017-08-03T17:49:20.966Z,49.20
2017-08-03T17:51:48.662Z,49.60
2017-08-03T17:54:16.429Z,49.20
2017-08-03T17:56:44.158Z,49.10
2017-08-03T17:59:12.422Z,49.20
2017-08-03T18:01:40.114Z,49.70
2017-08-03T18:04:08.338Z,49.10
2017-08-03T18:06:36.033Z,48.90
2017-08-03T18:09:03.889Z,49.30
2017-08-03T18:11:31.851Z,49.00
2017-08-03T18:13:59.598Z,49.20
2017-08-03T18:16:28.075Z,49.50
2017-08-03T18:18:56.833Z,49.50
2017-08-03T18:21:24.546Z,49.50
2017-08-03T18:23:53.014Z,49.70
2017-08-03T18:26:21.514Z,49.70
2017-08-03T18:28:49.215Z,49.80
2017-08-03T18:31:16.918Z,50.20
2017-08-03T18:33:45.271Z,50.20
2017-08-03T18:36:12.983Z,50.40
2017-08-03T18:38:40.706Z,50.70
2017-08-03T18:41:08.960Z,50.80
2017-08-03T18:43:36.682Z,51.00
2017-08-03T18:46:04.388Z,51.10
2017-08-03T18:48:32.700Z,51.20
2017-08-03T18:51:00.418Z,50.70
2017-08-03T18:53:28.903Z,51.20
2017-08-03T18:55:56.826Z,51.60
2017-08-03T18:58:25.086Z,51.60
2017-08-03T19:00:52.809Z,51.20
2017-08-03T19:03:20.534Z,51.50
2017-08-03T19:05:48.234Z,51.70
2017-08-03T19:08:16.469Z,52.00
2017-08-03T19:10:45.066Z,52.00
2017-08-03T19:13:12.924Z,52.00
2017-08-03T19:15:40.679Z,51.50
2017-08-03T19:18:08.415Z,52.00
2017-08-03T19:20:36.550Z,51.90
2017-08-03T19:23:05.498Z,51.00
2017-08-03T19:25:34.211Z,51.40
2017-08-03T19:28:01.907Z,51.50
2017-08-03T19:30:29.606Z,51.80
2017-08-03T19:32:57.334Z,52.00
2017-08-03T19:35:25.538Z,51.70
2017-08-03T19:37:53.274Z,52.20
2017-08-03T19:40:21.027Z,52.30
2017-08-03T19:42:48.743Z,52.80
2017-08-03T19:45:16.455Z,52.60
2017-08-03T19:47:44.307Z,52.70
2017-08-03T19:50:12.411Z,52.80
2017-08-03T19:52:40.113Z,52.70
2017-08-03T19:55:07.848Z,52.80
2017-08-03T19:57:36.242Z,52.10
2017-08-03T20:00:05.430Z,52.50
2017-08-03T20:02:34.162Z,52.50
2017-08-03T20:05:01.875Z,52.00
2017-08-03T20:07:32.626Z,52.50
2017-08-03T20:10:00.445Z,52.50
2017-08-03T20:12:28.150Z,52.30
2017-08-03T20:14:55.886Z,52.30
2017-08-03T20:17:24.356Z,52.80
2017-08-03T20:19:52.170Z,52.70
2017-08-03T20:22:19.912Z,53.20
2017-08-03T20:24:47.638Z,53.40
2017-08-03T20:27:16.239Z,53.40
2017-08-03T20:29:45.183Z,54.50
2017-08-03T20:32:12.899Z,53.40
2017-08-03T20:34:41.162Z,53.00
2017-08-03T20:37:10.670Z,53.80
2017-08-03T20:39:38.511Z,53.70
2017-08-03T20:42:06.294Z,54.00
2017-08-03T20:44:34.006Z,54.30
2017-08-03T20:47:01.723Z,54.40
2017-08-03T20:49:30.478Z,54.00
2017-08-03T20:51:58.192Z,54.20
2017-08-03T20:54:26.479Z,54.10
2017-08-03T20:56:54.190Z,54.40
2017-08-03T20:59:21.899Z,54.50
2017-08-03T21:01:49.641Z,54.60
2017-08-03T21:04:17.369Z,54.90
2017-08-03T21:06:45.106Z,54.90
2017-08-03T21:09:12.850Z,55.40
2017-08-03T21:11:40.566Z,55.50
2017-08-03T21:14:08.539Z,55.00
2017-08-03T21:16:36.246Z,55.40
2017-08-03T21:19:04.669Z,55.50
2017-08-03T21:21:32.404Z,55.40
2017-08-03T21:24:00.979Z,55.70
2017-08-03T21:26:29.455Z,55.60
